Time;durP1;ratioP1;P1;durP2;ratioP2;P2;SDS_P1;SDS_P2;PMS_P1;PMS_P2;Temp;Humidity;BMP_temperature;BMP_pressure;BME280_temperature;BME280_humidity;BME280_pressure;Samples;Min_cycle;Max_cycle;Signal;HPM_P1;HPM_P2
2023/07/06 00:01:22;;;;;;;4.00;2.90;;;19.90;88.00;;;;;;5016353;28;20476;-81
2023/07/06 00:03:54;;;;;;;3.30;2.40;;;19.90;88.20;;;;;;5016866;28;20473;-80
2023/07/06 00:06:21;;;;;;;5.30;2.60;;;19.80;88.50;;;;;;5016354;28;20828;-82
2023/07/06 00:08:48;;;;;;;3.63;3.33;;;19.80;88.50;;;;;;5017043;28;21018;-81
2023/07/06 00:11:16;;;;;;;3.57;2.80;;;19.80;88.60;;;;;;5015803;28;21067;-80
2023/07/06 00:13:45;;;;;;;4.93;3.37;;;19.80;89.10;;;;;;5016449;28;20465;-79
2023/07/06 00:16:12;;;;;;;6.77;3.00;;;19.70;89.40;;;;;;5024247;28;20472;-81
2023/07/06 00:18:39;;;;;;;3.20;2.90;;;19.70;89.50;;;;;;5036012;28;20469;-81
2023/07/06 00:21:06;;;;;;;4.57;2.73;;;19.70;89.70;;;;;;5036883;28;20962;-81
2023/07/06 00:23:33;;;;;;;3.60;2.67;;;19.70;90.00;;;;;;5032364;28;20468;-79
2023/07/06 00:26:02;;;;;;;5.37;3.17;;;19.70;90.10;;;;;;5033145;28;20472;-81
2023/07/06 00:28:32;;;;;;;4.10;3.00;;;19.70;90.20;;;;;;5035499;28;20464;-80
2023/07/06 00:31:06;;;;;;;4.37;3.97;;;19.60;90.40;;;;;;5036054;28;20471;-80
2023/07/06 00:33:33;;;;;;;3.03;2.73;;;19.60;90.40;;;;;;5035646;28;20954;-79
2023/07/06 00:36:03;;;;;;;5.53;3.23;;;19.60;90.40;;;;;;5036120;28;20989;-81
2023/07/06 00:38:30;;;;;;;3.37;2.80;;;19.60;90.60;;;;;;5035750;28;20810;-79
2023/07/06 00:40:59;;;;;;;4.30;2.63;;;19.60;90.60;;;;;;5012286;28;20472;-81
2023/07/06 00:43:28;;;;;;;6.23;3.00;;;19.50;90.60;;;;;;5031025;28;20551;-80
2023/07/06 00:45:59;;;;;;;3.33;3.03;;;19.50;90.70;;;;;;5035734;28;20514;-81
2023/07/06 00:48:32;;;;;;;3.20;2.97;;;19.50;90.90;;;;;;5035492;28;21193;-81
2023/07/06 00:51:02;;;;;;;4.37;3.37;;;19.50;91.20;;;;;;5036158;28;20490;-81
2023/07/06 00:53:33;;;;;;;4.60;3.03;;;19.40;91.00;;;;;;5035408;28;20557;-80
2023/07/06 00:56:01;;;;;;;3.90;2.83;;;19.40;91.20;;;;;;5035616;28;20487;-80
2023/07/06 00:58:31;;;;;;;3.20;2.90;;;19.40;91.20;;;;;;5035030;28;20503;-79
2023/07/06 01:01:03;;;;;;;3.97;3.40;;;19.40;91.30;;;;;;5035689;28;20478;-81
2023/07/06 01:03:31;;;;;;;2.87;2.63;;;19.30;91.50;;;;;;5034504;28;20472;-81
2023/07/06 01:06:02;;;;;;;3.63;3.17;;;19.30;91.70;;;;;;5035044;28;20555;-80
2023/07/06 01:08:30;;;;;;;2.83;2.40;;;19.30;91.70;;;;;;5033951;28;20468;-81
2023/07/06 01:10:59;;;;;;;4.40;3.13;;;19.40;91.80;;;;;;5035608;28;20499;-81
2023/07/06 01:13:27;;;;;;;3.57;3.20;;;19.30;91.90;;;;;;5034508;28;20962;-79
2023/07/06 01:16:07;;;;;;;4.23;3.00;;;19.30;92.00;;;;;;5035204;28;20523;-81
2023/07/06 01:18:47;;;;;;;4.60;3.30;;;19.30;92.10;;;;;;5035136;28;20494;-82
2023/07/06 01:21:21;;;;;;;4.23;2.90;;;19.30;92.20;;;;;;5034794;28;20981;-80
2023/07/06 01:24:17;;;;;;;3.73;2.97;;;19.20;92.20;;;;;;5034536;28;20872;-78
2023/07/06 01:27:24;;;;;;;3.10;2.80;;;19.30;92.40;;;;;;5034883;28;20496;-78
2023/07/06 01:30:16;;;;;;;5.53;3.10;;;19.20;92.50;;;;;;5034651;28;20444;-79
2023/07/06 01:32:50;;;;;;;3.30;2.57;;;19.20;92.50;;;;;;5033816;28;20464;-79
2023/07/06 01:35:23;;;;;;;2.50;2.30;;;19.20;92.60;;;;;;5034090;28;20472;-81
2023/07/06 01:37:51;;;;;;;4.87;2.90;;;19.20;92.70;;;;;;5034170;28;20460;-80
2023/07/06 01:40:37;;;;;;;4.30;3.20;;;19.20;92.90;;;;;;5034980;28;20476;-79
2023/07/06 01:43:05;;;;;;;3.43;2.60;;;19.20;93.00;;;;;;5035503;28;20491;-79
2023/07/06 01:45:32;;;;;;;3.17;2.97;;;19.20;93.00;;;;;;5034479;28;20475;-81
2023/07/06 01:48:05;;;;;;;2.90;2.40;;;19.20;93.00;;;;;;5034375;28;20472;-79
2023/07/06 01:50:43;;;;;;;5.07;2.80;;;19.20;93.10;;;;;;5034000;28;20535;-80
2023/07/06 01:53:18;;;;;;;3.30;3.00;;;19.10;93.20;;;;;;5033496;28;20567;-80
2023/07/06 01:55:49;;;;;;;5.93;3.10;;;19.10;93.20;;;;;;5034830;28;21044;-80
2023/07/06 01:58:24;;;;;;;3.10;2.80;;;19.10;93.40;;;;;;5034369;28;20992;-82
2023/07/06 02:00:56;;;;;;;5.53;2.80;;;19.00;93.40;;;;;;5034266;28;20472;-80
2023/07/06 02:03:26;;;;;;;4.87;2.80;;;19.00;93.50;;;;;;5034338;28;20468;-82
2023/07/06 02:05:54;;;;;;;6.97;2.57;;;19.00;93.50;;;;;;5034208;28;21045;-80
2023/07/06 02:08:23;;;;;;;3.60;3.30;;;19.10;93.60;;;;;;5034039;28;21032;-80
2023/07/06 02:10:50;;;;;;;3.17;2.70;;;19.00;93.50;;;;;;5034386;28;20468;-82
2023/07/06 02:13:18;;;;;;;4.47;2.97;;;19.10;93.70;;;;;;5033687;28;20555;-80
2023/07/06 02:15:45;;;;;;;4.60;2.57;;;19.00;93.90;;;;;;5033500;28;20843;-81
2023/07/06 02:18:12;;;;;;;4.37;2.87;;;19.00;94.00;;;;;;5033757;28;20460;-82
2023/07/06 02:20:40;;;;;;;5.90;3.10;;;19.00;94.10;;;;;;5034589;28;20468;-81
2023/07/06 02:23:13;;;;;;;2.70;2.50;;;19.00;94.10;;;;;;5034274;28;20551;-82
2023/07/06 02:25:43;;;;;;;5.17;3.50;;;19.00;94.10;;;;;;5033982;28;20463;-82
2023/07/06 02:28:10;;;;;;;3.77;3.13;;;19.00;94.20;;;;;;5034417;28;20496;-81
2023/07/06 02:30:37;;;;;;;2.93;2.70;;;19.00;94.20;;;;;;5033132;28;20524;-79
2023/07/06 02:33:12;;;;;;;4.23;3.03;;;19.00;94.40;;;;;;5017545;28;20479;-79
2023/07/06 02:35:40;;;;;;;3.60;2.80;;;19.00;94.40;;;;;;4993239;28;20539;-82
2023/07/06 02:38:23;;;;;;;3.27;2.80;;;18.90;94.20;;;;;;5027161;28;20487;-79
2023/07/06 02:40:50;;;;;;;3.60;3.00;;;19.00;94.30;;;;;;5029952;28;20531;-79
2023/07/06 02:43:18;;;;;;;3.50;3.20;;;18.90;94.30;;;;;;5033996;28;20834;-80
2023/07/06 02:45:47;;;;;;;3.73;3.30;;;18.90;94.40;;;;;;5033293;28;20530;-82
2023/07/06 02:48:14;;;;;;;4.03;3.40;;;18.90;94.40;;;;;;5033339;28;20475;-82
2023/07/06 02:50:42;;;;;;;4.90;3.77;;;18.90;94.50;;;;;;5033075;28;20530;-80
2023/07/06 02:53:10;;;;;;;3.77;2.93;;;18.90;94.50;;;;;;5033919;28;20464;-82
2023/07/06 02:55:37;;;;;;;3.40;3.10;;;18.90;94.50;;;;;;5033064;28;20483;-82
2023/07/06 02:58:04;;;;;;;3.33;3.03;;;18.80;94.40;;;;;;5033539;28;20805;-82
2023/07/06 03:00:31;;;;;;;5.00;3.77;;;18.80;94.50;;;;;;5022818;28;20553;-80
2023/07/06 03:02:58;;;;;;;5.87;3.37;;;18.80;94.50;;;;;;5017055;28;20526;-80
2023/07/06 03:05:25;;;;;;;5.27;4.50;;;18.80;94.50;;;;;;5033578;28;20815;-80
2023/07/06 03:07:54;;;;;;;3.30;3.03;;;18.80;94.60;;;;;;5032933;28;20468;-79
2023/07/06 03:10:23;;;;;;;3.80;3.50;;;18.70;94.60;;;;;;5033431;28;20468;-79
2023/07/06 03:12:51;;;;;;;3.90;3.40;;;18.80;94.70;;;;;;5033800;28;20517;-81
2023/07/06 03:15:18;;;;;;;4.10;3.43;;;18.70;94.60;;;;;;5033555;28;20471;-78
2023/07/06 03:17:48;;;;;;;4.83;3.83;;;18.70;94.60;;;;;;5034300;28;20460;-81
2023/07/06 03:20:19;;;;;;;4.67;4.13;;;18.70;94.70;;;;;;5036467;28;20544;-80
2023/07/06 03:22:48;;;;;;;4.17;3.40;;;18.60;94.80;;;;;;5034691;28;20479;-80
2023/07/06 03:25:18;;;;;;;4.90;3.90;;;18.60;94.90;;;;;;5036893;28;20970;-78
2023/07/06 03:27:47;;;;;;;4.13;3.37;;;18.60;95.10;;;;;;5039564;28;20811;-82
2023/07/06 03:30:16;;;;;;;4.07;3.07;;;18.60;95.10;;;;;;5047833;28;20471;-83
2023/07/06 03:32:43;;;;;;;5.83;3.20;;;18.60;95.20;;;;;;5049966;28;20467;-80
2023/07/06 03:35:13;;;;;;;3.80;3.50;;;18.60;95.30;;;;;;5037827;28;20503;-80
2023/07/06 03:37:42;;;;;;;4.60;3.90;;;18.60;95.40;;;;;;5037660;28;20526;-80
2023/07/06 03:40:11;;;;;;;5.80;3.40;;;18.60;95.50;;;;;;5034703;28;20464;-81
2023/07/06 03:42:41;;;;;;;3.27;2.97;;;18.60;95.50;;;;;;5032493;28;20923;-78
2023/07/06 03:45:10;;;;;;;3.63;3.33;;;18.60;95.60;;;;;;5032808;28;20460;-79
2023/07/06 03:47:37;;;;;;;3.60;3.30;;;18.60;95.70;;;;;;5032641;28;20468;-80
2023/07/06 03:50:08;;;;;;;4.80;4.27;;;18.50;95.90;;;;;;5033090;28;20463;-78
2023/07/06 03:52:36;;;;;;;4.87;3.50;;;18.60;96.00;;;;;;5032482;28;20468;-80
2023/07/06 03:55:03;;;;;;;3.57;3.17;;;18.50;96.00;;;;;;5032532;28;20468;-80
2023/07/06 03:57:31;;;;;;;4.60;3.70;;;18.50;96.00;;;;;;5032964;28;20626;-80
2023/07/06 03:59:59;;;;;;;4.00;3.27;;;18.60;96.10;;;;;;5032409;28;20464;-82
2023/07/06 04:02:26;;;;;;;6.30;3.70;;;18.60;96.30;;;;;;5032365;28;20499;-80
2023/07/06 04:04:54;;;;;;;3.80;3.30;;;18.60;96.40;;;;;;5032148;28;20550;-82
2023/07/06 04:07:21;;;;;;;3.77;3.37;;;18.60;96.30;;;;;;5032860;28;20512;-80
2023/07/06 04:09:48;;;;;;;3.13;2.93;;;18.60;96.30;;;;;;5031890;28;20534;-80
2023/07/06 04:12:15;;;;;;;3.23;2.90;;;18.60;96.30;;;;;;5032331;28;20475;-80
2023/07/06 04:14:43;;;;;;;3.63;3.33;;;18.60;96.40;;;;;;5032365;28;20487;-82
2023/07/06 04:17:16;;;;;;;3.43;3.10;;;18.70;96.60;;;;;;5032726;28;20466;-82
2023/07/06 04:19:43;;;;;;;5.17;3.70;;;18.70;96.70;;;;;;5032354;28;20502;-83
2023/07/06 04:22:10;;;;;;;4.50;4.10;;;18.70;96.80;;;;;;5032404;28;20997;-82
2023/07/06 04:24:37;;;;;;;5.70;3.80;;;18.70;96.80;;;;;;5032507;28;20523;-79
2023/07/06 04:27:05;;;;;;;4.60;3.67;;;18.80;96.90;;;;;;5031799;28;21052;-82
2023/07/06 04:29:32;;;;;;;5.43;3.90;;;18.80;97.00;;;;;;5032212;28;20478;-81
2023/07/06 04:31:59;;;;;;;4.23;3.83;;;18.80;97.00;;;;;;5031727;28;20866;-79
2023/07/06 04:34:30;;;;;;;4.40;3.73;;;18.80;97.10;;;;;;5032260;28;20910;-79
2023/07/06 04:36:57;;;;;;;5.53;4.50;;;18.90;97.10;;;;;;5032089;28;20472;-79
2023/07/06 04:39:24;;;;;;;4.23;3.90;;;18.80;97.30;;;;;;5035281;28;20464;-79
2023/07/06 04:41:51;;;;;;;5.33;4.57;;;18.90;97.40;;;;;;5035278;28;20506;-81
2023/07/06 04:44:18;;;;;;;6.67;4.80;;;18.90;97.40;;;;;;5035239;28;20464;-79
2023/07/06 04:46:45;;;;;;;4.77;4.37;;;18.90;97.40;;;;;;5035383;28;20472;-80
2023/07/06 04:49:12;;;;;;;3.90;3.50;;;18.90;97.50;;;;;;5035688;28;20467;-79
2023/07/06 04:51:40;;;;;;;5.30;3.90;;;18.90;97.60;;;;;;5035834;28;21029;-79
2023/07/06 04:54:37;;;;;;;4.30;3.90;;;19.00;97.60;;;;;;5035259;28;20474;-79
2023/07/06 04:57:04;;;;;;;6.50;4.57;;;19.00;97.50;;;;;;5033385;28;20465;-82
2023/07/06 04:59:31;;;;;;;4.57;3.70;;;19.00;97.60;;;;;;5035666;28;20472;-82
2023/07/06 05:02:00;;;;;;;4.73;3.40;;;19.10;97.60;;;;;;5035136;28;20989;-82
2023/07/06 05:04:28;;;;;;;6.93;4.40;;;19.10;97.50;;;;;;5034884;28;21038;-79
2023/07/06 05:06:56;;;;;;;5.50;3.73;;;19.20;97.50;;;;;;5034473;28;20548;-79
2023/07/06 05:09:24;;;;;;;5.40;4.30;;;19.30;97.40;;;;;;5035463;28;20783;-82
2023/07/06 05:11:52;;;;;;;4.37;3.57;;;19.30;97.80;;;;;;5035410;28;20974;-82
2023/07/06 05:14:19;;;;;;;4.37;3.77;;;19.30;97.50;;;;;;5035400;28;20859;-82
2023/07/06 05:16:46;;;;;;;4.00;3.70;;;19.40;97.70;;;;;;5034103;28;20575;-82
2023/07/06 05:19:15;;;;;;;5.13;3.13;;;19.40;97.50;;;;;;5035618;28;20538;-82
2023/07/06 05:21:42;;;;;;;3.80;3.50;;;19.40;97.50;;;;;;5035222;28;20659;-82
2023/07/06 05:24:11;;;;;;;4.20;3.80;;;19.50;97.50;;;;;;5034702;28;20519;-81
2023/07/06 05:26:38;;;;;;;3.43;2.90;;;19.40;97.60;;;;;;5035269;28;20472;-81
2023/07/06 05:29:05;;;;;;;3.60;3.27;;;19.40;97.60;;;;;;5034628;28;20560;-81
2023/07/06 05:31:32;;;;;;;5.33;3.90;;;19.50;97.60;;;;;;5035112;28;20559;-81
2023/07/06 05:33:59;;;;;;;3.30;3.00;;;19.50;97.60;;;;;;5034807;28;20494;-82
2023/07/06 05:36:29;;;;;;;3.40;3.10;;;19.60;97.50;;;;;;5034748;28;20471;-78
2023/07/06 05:38:56;;;;;;;3.23;2.93;;;19.60;97.50;;;;;;5034589;28;21129;-80
2023/07/06 05:41:24;;;;;;;4.70;2.77;;;19.70;97.50;;;;;;5034950;28;20641;-79
2023/07/06 05:43:51;;;;;;;4.00;3.10;;;19.70;97.40;;;;;;5033868;28;20471;-79
2023/07/06 05:46:18;;;;;;;4.00;3.60;;;19.80;97.20;;;;;;5034706;28;20542;-79
2023/07/06 05:48:45;;;;;;;6.00;4.23;;;19.90;97.10;;;;;;5034792;28;20471;-81
2023/07/06 05:51:12;;;;;;;5.97;3.70;;;19.90;97.20;;;;;;5011286;28;20786;-83
2023/07/06 05:53:39;;;;;;;4.00;3.60;;;19.90;97.00;;;;;;5030643;28;20468;-81
2023/07/06 05:56:06;;;;;;;8.93;3.90;;;20.00;96.70;;;;;;5034963;28;20496;-81
2023/07/06 05:58:37;;;;;;;9.83;4.17;;;20.00;96.60;;;;;;5035300;28;20887;-78
2023/07/06 06:01:04;;;;;;;3.20;2.93;;;20.10;96.60;;;;;;5034917;28;20798;-81
2023/07/06 06:03:31;;;;;;;6.37;3.77;;;20.10;96.10;;;;;;5034691;28;20547;-80
2023/07/06 06:05:59;;;;;;;6.43;3.57;;;20.20;95.80;;;;;;5033212;28;20502;-80
2023/07/06 06:08:26;;;;;;;4.50;4.10;;;20.30;95.80;;;;;;5035674;28;20598;-82
2023/07/06 06:10:55;;;;;;;5.50;5.00;;;20.30;95.70;;;;;;5036404;28;20468;-82
2023/07/06 06:13:27;;;;;;;4.73;4.33;;;20.40;95.90;;;;;;5035472;28;20460;-82
2023/07/06 06:15:57;;;;;;;5.57;3.80;;;20.50;95.40;;;;;;5034327;28;20480;-80
2023/07/06 06:18:24;;;;;;;3.20;2.90;;;20.60;95.30;;;;;;5034463;28;20460;-81
2023/07/06 06:20:51;;;;;;;4.63;3.13;;;20.70;95.10;;;;;;5035392;28;20476;-82
2023/07/06 06:23:20;;;;;;;4.37;2.30;;;20.80;95.00;;;;;;5034452;28;20491;-79
2023/07/06 06:25:47;;;;;;;5.33;3.30;;;21.00;94.90;;;;;;5035614;28;20522;-81
2023/07/06 06:28:16;;;;;;;2.97;2.67;;;21.10;94.80;;;;;;5007761;28;20560;-82
2023/07/06 06:30:43;;;;;;;7.90;3.20;;;21.20;94.40;;;;;;5035496;28;20480;-82
2023/07/06 06:33:17;;;;;;;6.30;3.70;;;21.30;94.20;;;;;;5033439;28;20468;-83
2023/07/06 06:35:45;;;;;;;3.33;2.47;;;21.40;93.80;;;;;;5034341;28;20475;-79
2023/07/06 06:38:14;;;;;;;4.03;2.97;;;21.60;93.50;;;;;;5034382;28;20847;-82
2023/07/06 06:40:45;;;;;;;4.00;2.50;;;21.70;93.40;;;;;;5035727;28;20463;-79
2023/07/06 06:43:12;;;;;;;3.23;2.73;;;21.80;93.20;;;;;;5033954;28;20970;-79
2023/07/06 06:45:39;;;;;;;3.90;2.37;;;21.90;92.90;;;;;;5034834;28;20526;-79
2023/07/06 06:48:07;;;;;;;4.57;2.30;;;22.00;92.30;;;;;;5032915;28;20468;-83
2023/07/06 06:50:36;;;;;;;2.63;2.43;;;22.10;92.00;;;;;;5034807;28;20464;-83
2023/07/06 06:53:06;;;;;;;2.57;2.20;;;22.20;91.90;;;;;;5035377;28;20506;-79
2023/07/06 06:55:33;;;;;;;4.30;3.90;;;22.30;91.50;;;;;;5034452;28;20491;-80
2023/07/06 06:58:02;;;;;;;5.00;2.90;;;22.40;91.00;;;;;;5034782;28;20476;-80
2023/07/06 07:00:29;;;;;;;3.03;2.70;;;22.50;90.90;;;;;;5034162;28;20476;-81
2023/07/06 07:02:57;;;;;;;2.90;2.70;;;22.60;90.50;;;;;;5035915;28;20984;-79
2023/07/06 07:05:30;;;;;;;3.00;2.63;;;22.80;90.40;;;;;;5035438;28;20476;-80
2023/07/06 07:07:59;;;;;;;2.53;2.07;;;22.90;89.50;;;;;;5009654;28;20489;-81
2023/07/06 07:10:25;;;;;;;1.83;1.73;;;23.10;86.70;;;;;;5034275;28;20487;-80
2023/07/06 07:12:55;;;;;;;2.13;1.60;;;23.20;85.40;;;;;;5040522;28;20456;-83
2023/07/06 07:15:23;;;;;;;2.13;1.50;;;23.30;84.50;;;;;;5041186;28;20472;-80
2023/07/06 07:17:55;;;;;;;3.00;2.30;;;23.50;84.20;;;;;;5043531;28;20494;-79
2023/07/06 07:20:22;;;;;;;2.53;2.00;;;23.50;84.00;;;;;;5037283;28;20476;-81
2023/07/06 07:22:49;;;;;;;3.43;2.10;;;23.60;83.40;;;;;;5016287;28;20565;-80
2023/07/06 07:25:18;;;;;;;3.40;2.20;;;23.70;83.20;;;;;;5036457;28;20469;-83
2023/07/06 07:27:46;;;;;;;3.20;2.30;;;23.80;83.10;;;;;;5038340;28;20465;-83
2023/07/06 07:30:13;;;;;;;2.17;1.90;;;23.90;82.30;;;;;;5041221;28;20545;-82
2023/07/06 07:32:41;;;;;;;2.90;1.70;;;24.00;81.80;;;;;;5041359;28;20555;-82
2023/07/06 07:35:09;;;;;;;3.53;2.03;;;24.10;81.60;;;;;;5045068;28;22176;-82
2023/07/06 07:37:36;;;;;;;2.70;1.87;;;24.20;80.50;;;;;;5045330;28;20506;-81
2023/07/06 07:40:05;;;;;;;2.53;2.33;;;24.20;79.70;;;;;;5044105;28;20483;-81
2023/07/06 07:42:33;;;;;;;2.03;1.87;;;24.30;80.00;;;;;;5043059;28;20937;-82
2023/07/06 07:45:02;;;;;;;2.60;2.33;;;24.40;79.80;;;;;;5047787;28;20535;-83
2023/07/06 07:47:29;;;;;;;2.33;2.00;;;24.50;79.40;;;;;;5045172;28;20460;-81
2023/07/06 07:49:59;;;;;;;1.87;1.77;;;24.60;79.00;;;;;;5046676;28;20472;-81
2023/07/06 07:52:28;;;;;;;4.43;2.50;;;24.60;79.30;;;;;;5046465;28;20472;-81
2023/07/06 07:54:55;;;;;;;2.17;1.97;;;24.60;79.70;;;;;;5047539;28;20460;-82
2023/07/06 07:57:26;;;;;;;2.40;2.07;;;24.70;78.60;;;;;;5041981;28;20468;-82
2023/07/06 07:59:54;;;;;;;2.73;2.27;;;24.80;78.00;;;;;;5035609;28;20464;-79
2023/07/06 08:02:23;;;;;;;2.13;1.93;;;24.80;77.70;;;;;;5039406;28;20542;-79
2023/07/06 08:04:51;;;;;;;3.00;2.07;;;24.80;76.60;;;;;;5038143;28;20460;-81
2023/07/06 08:07:19;;;;;;;2.63;1.90;;;24.80;76.00;;;;;;5041306;28;20476;-79
2023/07/06 08:09:46;;;;;;;3.53;2.27;;;24.90;76.20;;;;;;5038008;28;20973;-81
2023/07/06 08:12:17;;;;;;;2.23;2.03;;;24.90;75.60;;;;;;5037404;28;20472;-82
2023/07/06 08:14:44;;;;;;;4.07;2.50;;;24.90;76.40;;;;;;5038913;28;20980;-79
2023/07/06 08:17:14;;;;;;;4.27;2.70;;;25.00;76.20;;;;;;5040648;28;20491;-79
2023/07/06 08:19:41;;;;;;;3.60;2.30;;;25.10;76.20;;;;;;5039774;28;20470;-82
2023/07/06 08:22:08;;;;;;;3.53;2.23;;;25.20;76.40;;;;;;5041804;28;20479;-79
2023/07/06 08:24:37;;;;;;;2.30;2.10;;;25.20;76.20;;;;;;5043455;28;20472;-81
2023/07/06 08:27:06;;;;;;;2.00;1.80;;;25.10;76.00;;;;;;5045010;28;20484;-80
2023/07/06 08:29:33;;;;;;;1.83;1.73;;;25.10;76.00;;;;;;5028054;28;20477;-81
2023/07/06 08:32:03;;;;;;;3.67;2.33;;;25.10;76.00;;;;;;5034072;28;20468;-78
2023/07/06 08:34:35;;;;;;;2.03;1.83;;;25.20;76.10;;;;;;5043427;28;20476;-78
2023/07/06 08:37:05;;;;;;;2.70;2.40;;;25.20;75.60;;;;;;5015549;28;20475;-81
2023/07/06 08:39:39;;;;;;;2.43;1.50;;;25.30;75.50;;;;;;5043974;28;20471;-82
2023/07/06 08:42:09;;;;;;;2.00;1.90;;;25.40;75.20;;;;;;5042239;28;20498;-78
2023/07/06 08:44:38;;;;;;;3.80;2.00;;;25.50;75.00;;;;;;5042872;28;20467;-81
2023/07/06 08:47:07;;;;;;;2.50;2.17;;;25.50;74.90;;;;;;5043990;28;20958;-82
2023/07/06 08:49:38;;;;;;;2.07;1.90;;;25.50;74.00;;;;;;5045262;28;20491;-82
2023/07/06 08:52:08;;;;;;;2.33;2.13;;;25.40;73.60;;;;;;5039963;28;20468;-79
2023/07/06 08:54:37;;;;;;;2.43;2.03;;;25.50;73.90;;;;;;5041740;28;20842;-82
2023/07/06 08:57:13;;;;;;;1.97;1.70;;;25.30;73.90;;;;;;5040620;28;20468;-81
2023/07/06 08:59:43;;;;;;;3.23;2.70;;;25.30;73.80;;;;;;5039941;28;20534;-80
2023/07/06 09:02:16;;;;;;;2.37;2.17;;;25.20;73.90;;;;;;5040356;28;20459;-78
2023/07/06 09:04:47;;;;;;;3.10;2.53;;;25.00;73.60;;;;;;5040597;28;20472;-79
2023/07/06 09:07:16;;;;;;;3.67;2.43;;;25.00;74.30;;;;;;5039049;28;20463;-82
2023/07/06 09:09:44;;;;;;;2.60;2.13;;;24.90;74.20;;;;;;5039891;28;20848;-79
2023/07/06 09:12:15;;;;;;;3.07;2.10;;;24.70;74.60;;;;;;5041554;28;20452;-80
2023/07/06 09:14:46;;;;;;;2.10;1.90;;;24.60;75.70;;;;;;5047849;28;20472;-78
2023/07/06 09:17:18;;;;;;;2.47;1.97;;;24.50;75.20;;;;;;5047261;28;20779;-82
2023/07/06 09:19:54;;;;;;;2.97;2.13;;;24.40;75.80;;;;;;5014856;28;20481;-79
2023/07/06 09:22:23;;;;;;;3.70;2.30;;;24.40;76.30;;;;;;5038018;28;20475;-81
2023/07/06 09:24:52;;;;;;;3.40;1.70;;;24.40;75.40;;;;;;5047487;28;20566;-80
2023/07/06 09:27:23;;;;;;;3.13;2.03;;;24.30;75.70;;;;;;5045961;28;20468;-78
2023/07/06 09:30:00;;;;;;;2.27;1.90;;;24.20;75.90;;;;;;5048292;28;20472;-81
2023/07/06 09:32:32;;;;;;;3.93;2.37;;;24.30;76.40;;;;;;5046257;28;20494;-78
2023/07/06 09:35:13;;;;;;;2.00;1.90;;;24.30;77.20;;;;;;5048677;28;20464;-79
2023/07/06 09:37:48;;;;;;;2.10;1.80;;;24.20;76.90;;;;;;5048261;28;20452;-79
2023/07/06 09:40:16;;;;;;;3.13;2.20;;;24.20;77.50;;;;;;5049095;28;20518;-82
2023/07/06 09:42:45;;;;;;;2.83;2.23;;;24.10;77.80;;;;;;5030323;28;20482;-79
2023/07/06 09:45:24;;;;;;;4.00;1.80;;;24.20;77.90;;;;;;5037682;28;20842;-81
2023/07/06 09:47:56;;;;;;;3.70;1.90;;;24.20;77.60;;;;;;5046221;28;20569;-79
2023/07/06 09:50:37;;;;;;;3.47;2.30;;;24.20;77.60;;;;;;5042468;28;20542;-79
2023/07/06 09:53:07;;;;;;;5.23;3.10;;;24.30;78.00;;;;;;5049481;28;20467;-80
2023/07/06 09:55:35;;;;;;;2.67;2.03;;;24.40;78.80;;;;;;5048356;28;20460;-82
2023/07/06 09:58:03;;;;;;;2.13;2.03;;;24.50;78.60;;;;;;5043966;28;20473;-82
2023/07/06 10:00:39;;;;;;;3.57;2.00;;;24.60;77.80;;;;;;5042134;28;20509;-78
2023/07/06 10:03:15;;;;;;;2.50;2.30;;;24.80;77.50;;;;;;5047950;28;20464;-82
2023/07/06 10:06:00;;;;;;;3.77;2.17;;;24.80;76.90;;;;;;5044911;28;20793;-82
2023/07/06 10:08:34;;;;;;;1.97;1.70;;;24.90;76.00;;;;;;5044932;28;20512;-83
2023/07/06 10:11:09;;;;;;;2.47;2.27;;;24.90;76.10;;;;;;5045948;28;20480;-82
2023/07/06 10:13:41;;;;;;;1.90;1.80;;;25.00;75.40;;;;;;5045243;28;20463;-81
2023/07/06 10:16:22;;;;;;;2.50;2.23;;;25.00;75.30;;;;;;5044045;28;20526;-78
2023/07/06 10:18:52;;;;;;;2.30;2.10;;;24.80;75.20;;;;;;5026981;28;20488;-79
2023/07/06 10:21:29;;;;;;;2.03;1.90;;;24.70;75.40;;;;;;5023841;28;20552;-82
2023/07/06 10:24:08;;;;;;;1.67;1.57;;;24.60;75.10;;;;;;5027053;28;20480;-79
2023/07/06 10:26:38;;;;;;;2.80;2.20;;;24.50;74.90;;;;;;5024580;28;20473;-79
2023/07/06 10:50:30;;;;;;;2.33;2.13;;;24.50;77.20;;;;;;6105825;23;20440;-78
2023/07/06 11:06:54;;;;;;;2.70;2.50;;;24.60;75.30;;;;;;5290718;23;20506;-82
2023/07/06 11:09:21;;;;;;;2.10;1.90;;;24.50;74.70;;;;;;4960407;29;20802;-80
2023/07/06 11:12:06;;;;;;;1.77;1.67;;;24.50;75.30;;;;;;4962107;29;20472;-82
2023/07/06 11:14:42;;;;;;;2.40;2.00;;;24.50;75.30;;;;;;4960196;29;20471;-80
2023/07/06 11:17:20;;;;;;;1.73;1.63;;;24.40;75.50;;;;;;4959215;28;20549;-80
2023/07/06 11:19:58;;;;;;;2.57;2.37;;;24.40;75.90;;;;;;4960631;28;20471;-79
2023/07/06 11:22:27;;;;;;;2.50;2.30;;;24.40;75.80;;;;;;4960142;28;20886;-79
2023/07/06 11:24:59;;;;;;;3.10;2.00;;;24.40;76.10;;;;;;4959925;28;20531;-79
2023/07/06 11:27:31;;;;;;;3.10;2.00;;;24.30;76.40;;;;;;4960669;28;20463;-82
2023/07/06 11:33:50;;;;;;;2.97;2.00;;;24.20;75.70;;;;;;4912110;28;21004;-83
2023/07/06 11:36:25;;;;;;;2.27;2.17;;;24.20;76.00;;;;;;4964328;28;20452;-81
2023/07/06 11:39:37;;;;;;;3.30;2.00;;;24.20;74.50;;;;;;4969835;28;20483;-81
2023/07/06 11:42:31;;;;;;;2.73;2.13;;;24.10;74.20;;;;;;4970014;28;20479;-79
2023/07/06 11:45:05;;;;;;;2.23;2.07;;;24.10;75.00;;;;;;4954876;28;20951;-79
2023/07/06 11:47:54;;;;;;;3.03;2.53;;;24.00;75.40;;;;;;4967317;28;20504;-81
2023/07/06 11:50:25;;;;;;;2.63;2.43;;;24.10;76.00;;;;;;4968811;28;20463;-82
2023/07/06 11:53:17;;;;;;;2.60;2.40;;;24.10;75.60;;;;;;4955366;28;20859;-82
2023/07/06 11:55:54;;;;;;;2.57;2.37;;;24.00;76.10;;;;;;4963475;28;20464;-78
2023/07/06 11:58:43;;;;;;;3.23;2.40;;;24.00;76.30;;;;;;4964223;28;20475;-79
2023/07/06 12:01:21;;;;;;;3.40;3.10;;;24.10;76.50;;;;;;4968436;28;20480;-78
2023/07/06 12:03:48;;;;;;;4.10;3.70;;;24.00;76.50;;;;;;4955017;28;20460;-79
2023/07/06 12:06:18;;;;;;;2.67;2.47;;;24.00;76.50;;;;;;4965915;28;20565;-82
2023/07/06 12:08:47;;;;;;;3.20;2.50;;;24.00;76.50;;;;;;4965885;28;20503;-81
2023/07/06 12:11:17;;;;;;;2.20;1.77;;;24.00;77.20;;;;;;4956514;28;20471;-82
2023/07/06 12:13:53;;;;;;;2.17;1.97;;;23.90;77.10;;;;;;4967342;28;20498;-78
2023/07/06 12:16:23;;;;;;;3.47;2.33;;;24.00;77.00;;;;;;4964797;28;20475;-80
2023/07/06 12:18:57;;;;;;;2.33;2.00;;;24.00;76.30;;;;;;4965973;28;20963;-79
2023/07/06 12:21:31;;;;;;;2.23;2.13;;;24.10;76.30;;;;;;4967718;28;20597;-79
2023/07/06 12:24:01;;;;;;;1.70;1.60;;;24.20;77.40;;;;;;4967623;28;20546;-82
2023/07/06 12:26:32;;;;;;;4.83;2.40;;;24.30;77.20;;;;;;4969173;28;20485;-77
2023/07/06 12:29:03;;;;;;;6.67;2.77;;;24.30;75.70;;;;;;4968894;28;20566;-79
2023/07/06 12:31:31;;;;;;;3.80;2.90;;;24.30;76.50;;;;;;4968628;28;20471;-82
2023/07/06 12:34:00;;;;;;;2.83;2.20;;;24.40;76.60;;;;;;4969674;28;20548;-81
2023/07/06 12:36:28;;;;;;;3.67;3.30;;;24.50;76.50;;;;;;4973108;28;20483;-82
2023/07/06 12:39:20;;;;;;;6.23;4.03;;;24.50;75.30;;;;;;4972855;28;20982;-81
2023/07/06 12:41:54;;;;;;;3.17;2.23;;;24.50;75.40;;;;;;4968604;28;20503;-82
2023/07/06 12:44:26;;;;;;;2.40;2.13;;;24.50;75.20;;;;;;4966228;28;20476;-82
2023/07/06 12:46:58;;;;;;;2.00;1.90;;;24.50;74.90;;;;;;4968186;28;20483;-82
2023/07/06 12:49:25;;;;;;;2.67;2.10;;;24.50;74.60;;;;;;4968095;28;20562;-80
2023/07/06 12:51:56;;;;;;;2.73;2.13;;;24.50;75.20;;;;;;4962928;28;20468;-79
2023/07/06 12:54:24;;;;;;;3.40;2.60;;;24.50;75.60;;;;;;4957352;28;20487;-83
2023/07/06 12:57:00;;;;;;;3.23;2.97;;;24.60;76.10;;;;;;4964360;28;20468;-79
2023/07/06 12:59:35;;;;;;;2.93;2.70;;;24.60;77.00;;;;;;4962512;28;20507;-82
2023/07/06 13:02:16;;;;;;;2.27;2.07;;;24.60;75.10;;;;;;4964761;28;20467;-78
2023/07/06 13:04:45;;;;;;;2.40;2.20;;;24.60;74.00;;;;;;4964434;28;20471;-79
2023/07/06 13:07:15;;;;;;;4.20;2.47;;;24.60;73.10;;;;;;4963666;28;20505;-79
2023/07/06 13:09:43;;;;;;;2.17;2.00;;;24.70;73.20;;;;;;4964342;28;20472;-81
2023/07/06 13:12:19;;;;;;;2.43;2.23;;;24.80;71.40;;;;;;4966450;28;20482;-79
2023/07/06 13:14:50;;;;;;;3.50;2.40;;;24.80;69.50;;;;;;4964966;28;20471;-79
2023/07/06 13:17:22;;;;;;;6.23;3.17;;;24.80;68.50;;;;;;4965565;28;20468;-81
2023/07/06 13:19:50;;;;;;;3.03;2.20;;;24.80;68.40;;;;;;4965764;28;20950;-82
2023/07/06 13:22:17;;;;;;;2.60;1.80;;;24.90;68.90;;;;;;4953835;28;20487;-79
2023/07/06 13:24:46;;;;;;;2.03;1.83;;;25.00;68.20;;;;;;4964988;28;20483;-79
2023/07/06 13:27:14;;;;;;;2.47;2.27;;;25.00;67.80;;;;;;4966942;28;20480;-80
2023/07/06 13:29:42;;;;;;;3.40;2.90;;;25.00;67.80;;;;;;4965329;28;20530;-79
2023/07/06 13:32:20;;;;;;;3.87;3.57;;;25.10;67.30;;;;;;4967436;28;20475;-79
2023/07/06 13:34:58;;;;;;;2.53;2.33;;;25.10;66.50;;;;;;4969867;28;20472;-78
2023/07/06 13:37:28;;;;;;;2.30;2.10;;;25.20;66.10;;;;;;4966730;28;20499;-82
2023/07/06 13:39:59;;;;;;;2.40;2.20;;;25.10;66.70;;;;;;4965325;28;20535;-79
2023/07/06 13:42:28;;;;;;;2.70;2.00;;;25.10;65.70;;;;;;4964477;28;20475;-80
2023/07/06 13:44:55;;;;;;;3.00;2.33;;;25.10;65.50;;;;;;4961878;28;20471;-78